sensor_id;sensor_type;location;lat;lon;timestamp;pressure;altitude;pressure_sealevel;temperature;humidity
71424;BME280;59240;51.370;-0.486;2023-01-25T00:02:02;103651.00;;;-1.54;78.01
71424;BME280;59240;51.370;-0.486;2023-01-25T00:04:35;103627.00;;;-1.68;78.01
71424;BME280;59240;51.370;-0.486;2023-01-25T00:07:20;103702.59;;;-1.24;78.27
71424;BME280;59240;51.370;-0.486;2023-01-25T00:09:51;103709.28;;;-1.26;77.98
71424;BME280;59240;51.370;-0.486;2023-01-25T00:12:18;103612.22;;;-1.83;78.02
71424;BME280;59240;51.370;-0.486;2023-01-25T00:14:47;103662.13;;;-1.53;78.01
71424;BME280;59240;51.370;-0.486;2023-01-25T00:17:27;103604.75;;;-1.92;77.17
71424;BME280;59240;51.370;-0.486;2023-01-25T00:20:04;103618.31;;;-1.81;77.99
71424;BME280;59240;51.370;-0.486;2023-01-25T00:22:34;103604.97;;;-1.89;77.99
71424;BME280;59240;51.370;-0.486;2023-01-25T00:25:04;103599.41;;;-1.95;77.71
71424;BME280;59240;51.370;-0.486;2023-01-25T00:27:41;103676.91;;;-1.49;77.85
71424;BME280;59240;51.370;-0.486;2023-01-25T00:30:20;103610.09;;;-1.89;77.37
71424;BME280;59240;51.370;-0.486;2023-01-25T00:36:33;103685.69;;;-1.46;77.89
71424;BME280;59240;51.370;-0.486;2023-01-25T00:39:20;103577.38;;;-2.16;77.96
71424;BME280;59240;51.370;-0.486;2023-01-25T00:42:42;103628.06;;;-1.87;77.56
71424;BME280;59240;51.370;-0.486;2023-01-25T00:48:39;103647.19;;;-1.82;78.12
71424;BME280;59240;51.370;-0.486;2023-01-25T00:52:01;103620.63;;;-1.96;78.40
71424;BME280;59240;51.370;-0.486;2023-01-25T00:54:38;103632.09;;;-1.91;78.10
71424;BME280;59240;51.370;-0.486;2023-01-25T01:05:03;103655.22;;;-1.78;78.58
71424;BME280;59240;51.370;-0.486;2023-01-25T01:07:33;103580.25;;;-2.24;78.48
71424;BME280;59240;51.370;-0.486;2023-01-25T01:10:00;103680.31;;;-1.72;78.14
71424;BME280;59240;51.370;-0.486;2023-01-25T01:12:50;103579.38;;;-2.24;78.52
71424;BME280;59240;51.370;-0.486;2023-01-25T01:15:36;103585.34;;;-2.24;78.48
71424;BME280;59240;51.370;-0.486;2023-01-25T01:18:03;103637.72;;;-1.95;78.35
71424;BME280;59240;51.370;-0.486;2023-01-25T01:20:50;103571.91;;;-2.33;77.87
71424;BME280;59240;51.370;-0.486;2023-01-25T01:23:33;103581.09;;;-2.35;77.81
71424;BME280;59240;51.370;-0.486;2023-01-25T01:26:06;103581.00;;;-2.36;78.38
71424;BME280;59240;51.370;-0.486;2023-01-25T01:29:26;103630.38;;;-2.02;79.31
71424;BME280;59240;51.370;-0.486;2023-01-25T01:33:07;103576.56;;;-2.39;78.83
71424;BME280;59240;51.370;-0.486;2023-01-25T01:35:36;103617.72;;;-2.12;78.95
71424;BME280;59240;51.370;-0.486;2023-01-25T01:38:08;103651.38;;;-1.95;78.45
71424;BME280;59240;51.370;-0.486;2023-01-25T01:40:35;103655.19;;;-1.89;78.73
71424;BME280;59240;51.370;-0.486;2023-01-25T01:43:15;103603.59;;;-2.19;78.84
71424;BME280;59240;51.370;-0.486;2023-01-25T01:46:12;103565.78;;;-2.35;79.44
71424;BME280;59240;51.370;-0.486;2023-01-25T01:55:35;103599.13;;;-2.22;78.87
71424;BME280;59240;51.370;-0.486;2023-01-25T01:59:11;103576.00;;;-2.35;78.99
71424;BME280;59240;51.370;-0.486;2023-01-25T02:01:39;103585.41;;;-2.34;78.85
71424;BME280;59240;51.370;-0.486;2023-01-25T02:04:35;103578.06;;;-2.41;78.87
71424;BME280;59240;51.370;-0.486;2023-01-25T02:07:42;103638.47;;;-2.08;78.58
71424;BME280;59240;51.370;-0.486;2023-01-25T02:10:52;103594.41;;;-2.39;79.49
71424;BME280;59240;51.370;-0.486;2023-01-25T02:16:57;103584.22;;;-2.39;79.52
71424;BME280;59240;51.370;-0.486;2023-01-25T02:22:29;103593.53;;;-2.28;79.42
71424;BME280;59240;51.370;-0.486;2023-01-25T02:25:32;103668.97;;;-1.76;79.54
71424;BME280;59240;51.370;-0.486;2023-01-25T02:28:19;103614.50;;;-1.98;79.78
71424;BME280;59240;51.370;-0.486;2023-01-25T02:31:10;103605.28;;;-1.96;80.35
71424;BME280;59240;51.370;-0.486;2023-01-25T02:33:40;103567.16;;;-2.16;80.01
71424;BME280;59240;51.370;-0.486;2023-01-25T02:36:30;103637.09;;;-1.69;80.10
71424;BME280;59240;51.370;-0.486;2023-01-25T02:39:04;103603.22;;;-1.78;79.99
71424;BME280;59240;51.370;-0.486;2023-01-25T02:41:42;103556.50;;;-1.99;79.93
71424;BME280;59240;51.370;-0.486;2023-01-25T02:44:24;103651.22;;;-1.39;79.92
71424;BME280;59240;51.370;-0.486;2023-01-25T02:46:57;103618.13;;;-1.49;80.40
71424;BME280;59240;51.370;-0.486;2023-01-25T02:49:28;103555.09;;;-1.84;80.03
71424;BME280;59240;51.370;-0.486;2023-01-25T02:51:58;103563.00;;;-1.69;80.06
71424;BME280;59240;51.370;-0.486;2023-01-25T02:54:25;103618.69;;;-1.30;80.53
71424;BME280;59240;51.370;-0.486;2023-01-25T02:56:54;103600.78;;;-1.42;80.16
71424;BME280;59240;51.370;-0.486;2023-01-25T02:59:32;103634.31;;;-1.14;80.23
71424;BME280;59240;51.370;-0.486;2023-01-25T03:02:04;103562.75;;;-1.49;80.37
71424;BME280;59240;51.370;-0.486;2023-01-25T03:04:31;103602.22;;;-1.22;80.32
71424;BME280;59240;51.370;-0.486;2023-01-25T03:06:58;103619.19;;;-1.11;80.65
71424;BME280;59240;51.370;-0.486;2023-01-25T03:09:26;103559.19;;;-1.39;80.46
71424;BME280;59240;51.370;-0.486;2023-01-25T03:11:53;103599.84;;;-1.07;80.43
71424;BME280;59240;51.370;-0.486;2023-01-25T03:14:19;103629.38;;;-0.87;80.19
71424;BME280;59240;51.370;-0.486;2023-01-25T03:16:47;103593.06;;;-1.06;80.47
71424;BME280;59240;51.370;-0.486;2023-01-25T03:19:16;103564.94;;;-1.18;80.64
71424;BME280;59240;51.370;-0.486;2023-01-25T03:21:46;103574.34;;;-1.05;80.58
71424;BME280;59240;51.370;-0.486;2023-01-25T03:24:13;103650.81;;;-0.62;80.47
71424;BME280;59240;51.370;-0.486;2023-01-25T03:26:41;103581.03;;;-0.96;80.38
71424;BME280;59240;51.370;-0.486;2023-01-25T03:29:27;103603.13;;;-0.85;80.57
71424;BME280;59240;51.370;-0.486;2023-01-25T03:35:26;103569.31;;;-0.92;80.33
71424;BME280;59240;51.370;-0.486;2023-01-25T03:37:56;103587.72;;;-0.73;81.02
71424;BME280;59240;51.370;-0.486;2023-01-25T03:40:24;103596.81;;;-0.65;80.73
71424;BME280;59240;51.370;-0.486;2023-01-25T03:42:53;103558.63;;;-0.87;80.60
71424;BME280;59240;51.370;-0.486;2023-01-25T03:45:20;103623.00;;;-0.44;80.84
71424;BME280;59240;51.370;-0.486;2023-01-25T03:47:47;103552.59;;;-0.75;81.07
71424;BME280;59240;51.370;-0.486;2023-01-25T03:50:14;103573.41;;;-0.58;81.12
71424;BME280;59240;51.370;-0.486;2023-01-25T03:52:41;103525.69;;;-0.82;80.74
71424;BME280;59240;51.370;-0.486;2023-01-25T03:55:12;103520.56;;;-0.82;80.84
71424;BME280;59240;51.370;-0.486;2023-01-25T03:57:39;103620.44;;;-0.19;80.70
71424;BME280;59240;51.370;-0.486;2023-01-25T04:00:10;103545.34;;;-0.56;81.09
71424;BME280;59240;51.370;-0.486;2023-01-25T04:02:38;103536.50;;;-0.61;81.22
71424;BME280;59240;51.370;-0.486;2023-01-25T04:05:05;103525.56;;;-0.59;80.49
71424;BME280;59240;51.370;-0.486;2023-01-25T04:07:33;103581.69;;;-0.23;81.37
71424;BME280;59240;51.370;-0.486;2023-01-25T04:10:00;103540.38;;;-0.41;81.13
71424;BME280;59240;51.370;-0.486;2023-01-25T04:12:26;103544.13;;;-0.36;80.53
71424;BME280;59240;51.370;-0.486;2023-01-25T04:14:53;103525.69;;;-0.44;81.04
71424;BME280;59240;51.370;-0.486;2023-01-25T04:17:21;103536.53;;;-0.35;81.24
71424;BME280;59240;51.370;-0.486;2023-01-25T04:20:05;103572.94;;;-0.14;80.88
71424;BME280;59240;51.370;-0.486;2023-01-25T04:22:32;103587.84;;;-0.08;81.27
71424;BME280;59240;51.370;-0.486;2023-01-25T04:24:59;103567.06;;;-0.13;81.29
71424;BME280;59240;51.370;-0.486;2023-01-25T04:27:26;103574.13;;;-0.09;81.01
71424;BME280;59240;51.370;-0.486;2023-01-25T04:29:53;103587.88;;;0.05;80.64
71424;BME280;59240;51.370;-0.486;2023-01-25T04:32:20;103572.69;;;-0.05;81.10
71424;BME280;59240;51.370;-0.486;2023-01-25T04:34:47;103588.19;;;0.10;80.62
71424;BME280;59240;51.370;-0.486;2023-01-25T04:37:13;103559.09;;;-0.04;81.16
71424;BME280;59240;51.370;-0.486;2023-01-25T04:39:40;103593.50;;;0.13;81.15
71424;BME280;59240;51.370;-0.486;2023-01-25T04:42:08;103526.44;;;-0.20;80.91
71424;BME280;59240;51.370;-0.486;2023-01-25T04:45:14;103579.91;;;0.14;81.16
71424;BME280;59240;51.370;-0.486;2023-01-25T04:47:44;103521.50;;;-0.17;80.88
71424;BME280;59240;51.370;-0.486;2023-01-25T04:50:11;103560.97;;;0.12;81.00
71424;BME280;59240;51.370;-0.486;2023-01-25T04:52:37;103523.50;;;-0.13;80.79
71424;BME280;59240;51.370;-0.486;2023-01-25T04:55:04;103536.91;;;-0.04;80.60
71424;BME280;59240;51.370;-0.486;2023-01-25T04:57:32;103579.63;;;0.22;81.25
71424;BME280;59240;51.370;-0.486;2023-01-25T04:59:59;103556.63;;;0.11;81.21
71424;BME280;59240;51.370;-0.486;2023-01-25T05:02:26;103535.44;;;0.00;80.64
71424;BME280;59240;51.370;-0.486;2023-01-25T05:04:53;103581.47;;;0.25;80.94
71424;BME280;59240;51.370;-0.486;2023-01-25T05:07:20;103562.97;;;0.16;80.91
71424;BME280;59240;51.370;-0.486;2023-01-25T05:09:49;103546.19;;;0.08;81.08
71424;BME280;59240;51.370;-0.486;2023-01-25T05:12:16;103540.28;;;0.09;80.57
71424;BME280;59240;51.370;-0.486;2023-01-25T05:14:43;103538.50;;;0.08;80.55
71424;BME280;59240;51.370;-0.486;2023-01-25T05:17:09;103540.47;;;0.12;81.10
71424;BME280;59240;51.370;-0.486;2023-01-25T05:19:36;103577.72;;;0.33;81.21
71424;BME280;59240;51.370;-0.486;2023-01-25T05:22:05;103551.69;;;0.27;81.16
71424;BME280;59240;51.370;-0.486;2023-01-25T05:24:37;103521.53;;;0.10;80.81
71424;BME280;59240;51.370;-0.486;2023-01-25T05:27:15;103527.94;;;0.16;81.25
71424;BME280;59240;51.370;-0.486;2023-01-25T05:29:43;103565.94;;;0.35;81.19
71424;BME280;59240;51.370;-0.486;2023-01-25T05:32:13;103571.44;;;0.41;81.17
71424;BME280;59240;51.370;-0.486;2023-01-25T05:34:41;103499.75;;;0.03;81.15
71424;BME280;59240;51.370;-0.486;2023-01-25T05:37:11;103530.59;;;0.18;81.49
71424;BME280;59240;51.370;-0.486;2023-01-25T05:39:38;103507.94;;;0.11;81.10
71424;BME280;59240;51.370;-0.486;2023-01-25T05:42:17;103569.25;;;0.47;81.26
71424;BME280;59240;51.370;-0.486;2023-01-25T05:44:46;103543.59;;;0.34;80.89
71424;BME280;59240;51.370;-0.486;2023-01-25T05:47:15;103509.22;;;0.17;81.50
71424;BME280;59240;51.370;-0.486;2023-01-25T05:49:42;103524.50;;;0.29;81.50
71424;BME280;59240;51.370;-0.486;2023-01-25T05:52:13;103549.75;;;0.49;81.38
71424;BME280;59240;51.370;-0.486;2023-01-25T05:54:50;103530.41;;;0.41;81.28
71424;BME280;59240;51.370;-0.486;2023-01-25T05:57:16;103499.25;;;0.22;80.97
71424;BME280;59240;51.370;-0.486;2023-01-25T06:10:29;103507.03;;;0.37;81.14
71424;BME280;59240;51.370;-0.486;2023-01-25T06:14:24;103511.84;;;0.45;80.96
71424;BME280;59240;51.370;-0.486;2023-01-25T06:25:25;103549.19;;;0.81;81.75
71424;BME280;59240;51.370;-0.486;2023-01-25T06:28:52;103537.94;;;0.79;81.94
71424;BME280;59240;51.370;-0.486;2023-01-25T06:32:13;103507.00;;;0.63;81.73
71424;BME280;59240;51.370;-0.486;2023-01-25T06:35:13;103513.50;;;0.71;80.95
71424;BME280;59240;51.370;-0.486;2023-01-25T06:38:36;103481.75;;;0.56;82.10
71424;BME280;59240;51.370;-0.486;2023-01-25T06:41:35;103572.31;;;1.09;82.73
71424;BME280;59240;51.370;-0.486;2023-01-25T06:51:42;103550.19;;;1.12;81.56
71424;BME280;59240;51.370;-0.486;2023-01-25T06:55:41;103558.81;;;1.27;82.31
71424;BME280;59240;51.370;-0.486;2023-01-25T07:18:48;103519.38;;;1.12;82.38
71424;BME280;59240;51.370;-0.486;2023-01-25T07:43:35;103446.53;;;0.81;82.66
71424;BME280;59240;51.370;-0.486;2023-01-25T07:55:57;103462.75;;;0.95;82.70
71424;BME280;59240;51.370;-0.486;2023-01-25T08:03:15;103545.03;;;1.40;83.41
71424;BME280;59240;51.370;-0.486;2023-01-25T08:31:03;103409.78;;;0.68;82.93
71424;BME280;59240;51.370;-0.486;2023-01-25T08:34:21;103473.69;;;1.06;84.05
71424;BME280;59240;51.370;-0.486;2023-01-25T08:49:06;103412.91;;;0.77;84.11
71424;BME280;59240;51.370;-0.486;2023-01-25T08:51:44;103459.19;;;1.06;84.30
71424;BME280;59240;51.370;-0.486;2023-01-25T08:54:18;103405.75;;;0.71;83.86
71424;BME280;59240;51.370;-0.486;2023-01-25T08:57:52;103482.13;;;1.18;84.36
71424;BME280;59240;51.370;-0.486;2023-01-25T09:00:23;103409.56;;;0.78;83.57
71424;BME280;59240;51.370;-0.486;2023-01-25T09:03:09;103372.91;;;0.66;83.39
71424;BME280;59240;51.370;-0.486;2023-01-25T09:05:49;103378.22;;;0.69;83.95
71424;BME280;59240;51.370;-0.486;2023-01-25T09:09:16;103404.00;;;0.85;83.74
71424;BME280;59240;51.370;-0.486;2023-01-25T09:12:13;103380.53;;;0.79;83.69
71424;BME280;59240;51.370;-0.486;2023-01-25T09:15:07;103455.50;;;1.31;84.40
71424;BME280;59240;51.370;-0.486;2023-01-25T09:17:45;103421.84;;;1.12;83.08
71424;BME280;59240;51.370;-0.486;2023-01-25T09:21:13;103447.16;;;1.35;84.38
71424;BME280;59240;51.370;-0.486;2023-01-25T09:23:53;103390.66;;;1.05;83.49
71424;BME280;59240;51.370;-0.486;2023-01-25T09:26:37;103365.44;;;0.98;83.18
71424;BME280;59240;51.370;-0.486;2023-01-25T09:32:37;103352.75;;;1.01;83.49
71424;BME280;59240;51.370;-0.486;2023-01-25T09:35:07;103361.63;;;1.06;83.44
71424;BME280;59240;51.370;-0.486;2023-01-25T09:38:10;103335.44;;;0.97;83.83
71424;BME280;59240;51.370;-0.486;2023-01-25T09:51:25;103337.13;;;1.12;84.15
71424;BME280;59240;51.370;-0.486;2023-01-25T10:01:22;103296.50;;;1.04;83.71
71424;BME280;59240;51.370;-0.486;2023-01-25T10:04:57;103349.94;;;1.41;83.30
71424;BME280;59240;51.370;-0.486;2023-01-25T10:08:02;103355.75;;;1.53;83.75
71424;BME280;59240;51.370;-0.486;2023-01-25T10:11:29;103305.41;;;1.26;83.99
71424;BME280;59240;51.370;-0.486;2023-01-25T10:13:59;103265.78;;;1.06;83.56
71424;BME280;59240;51.370;-0.486;2023-01-25T10:17:39;103360.13;;;1.71;83.68
71424;BME280;59240;51.370;-0.486;2023-01-25T10:31:17;103346.22;;;1.98;83.74
71424;BME280;59240;51.370;-0.486;2023-01-25T10:33:54;103265.19;;;1.57;84.01
71424;BME280;59240;51.370;-0.486;2023-01-25T10:36:31;103240.78;;;1.49;83.32
71424;BME280;59240;51.370;-0.486;2023-01-25T10:39:09;103269.44;;;1.72;83.64
71424;BME280;59240;51.370;-0.486;2023-01-25T10:41:49;103275.22;;;1.84;83.88
71424;BME280;59240;51.370;-0.486;2023-01-25T10:44:18;103303.66;;;2.03;83.92
71424;BME280;59240;51.370;-0.486;2023-01-25T10:47:29;103302.72;;;2.17;85.19
71424;BME280;59240;51.370;-0.486;2023-01-25T10:50:01;103291.63;;;2.18;84.15
71424;BME280;59240;51.370;-0.486;2023-01-25T10:52:32;103310.44;;;2.34;84.34
71424;BME280;59240;51.370;-0.486;2023-01-25T10:55:21;103281.09;;;2.30;84.28
71424;BME280;59240;51.370;-0.486;2023-01-25T10:57:57;103205.66;;;1.97;84.57
71424;BME280;59240;51.370;-0.486;2023-01-25T11:00:34;103234.91;;;2.15;84.31
71424;BME280;59240;51.370;-0.486;2023-01-25T11:03:04;103240.75;;;2.29;83.54
71424;BME280;59240;51.370;-0.486;2023-01-25T11:05:38;103266.69;;;2.50;83.99
71424;BME280;59240;51.370;-0.486;2023-01-25T11:10:58;103266.44;;;2.62;83.94
71424;BME280;59240;51.370;-0.486;2023-01-25T11:13:27;103262.31;;;2.65;83.81
71424;BME280;59240;51.370;-0.486;2023-01-25T11:18:30;103219.75;;;2.54;83.62
71424;BME280;59240;51.370;-0.486;2023-01-25T11:23:37;103186.41;;;2.57;84.11
71424;BME280;59240;51.370;-0.486;2023-01-25T11:26:22;103181.50;;;2.62;84.10
71424;BME280;59240;51.370;-0.486;2023-01-25T11:28:49;103212.06;;;2.90;83.85
71424;BME280;59240;51.370;-0.486;2023-01-25T11:31:19;103199.69;;;2.83;84.18
71424;BME280;59240;51.370;-0.486;2023-01-25T11:33:47;103197.94;;;2.82;84.39
71424;BME280;59240;51.370;-0.486;2023-01-25T11:45:19;103196.28;;;3.01;84.41
71424;BME280;59240;51.370;-0.486;2023-01-25T12:20:12;103139.38;;;3.52;84.15
71424;BME280;59240;51.370;-0.486;2023-01-25T12:23:03;103085.94;;;3.28;84.18
71424;BME280;59240;51.370;-0.486;2023-01-25T12:25:47;103089.59;;;3.34;83.77
71424;BME280;59240;51.370;-0.486;2023-01-25T12:28:50;103164.09;;;3.86;85.31
71424;BME280;59240;51.370;-0.486;2023-01-25T12:31:53;103099.09;;;3.54;84.24
71424;BME280;59240;51.370;-0.486;2023-01-25T12:34:49;103094.75;;;3.53;84.47
71424;BME280;59240;51.370;-0.486;2023-01-25T12:37:34;103171.22;;;3.91;83.79
71424;BME280;59240;51.370;-0.486;2023-01-25T12:40:17;103147.53;;;3.80;84.17
71424;BME280;59240;51.370;-0.486;2023-01-25T12:42:56;103076.34;;;3.44;83.77
71424;BME280;59240;51.370;-0.486;2023-01-25T12:45:31;103118.84;;;3.73;83.98
71424;BME280;59240;51.370;-0.486;2023-01-25T12:48:13;103093.94;;;3.54;83.78
71424;BME280;59240;51.370;-0.486;2023-01-25T12:50:51;103129.88;;;3.70;84.34
71424;BME280;59240;51.370;-0.486;2023-01-25T12:53:29;103147.53;;;3.80;84.02
71424;BME280;59240;51.370;-0.486;2023-01-25T12:55:58;103162.56;;;3.91;84.40
71424;BME280;59240;51.370;-0.486;2023-01-25T12:58:58;103106.97;;;3.57;84.97
71424;BME280;59240;51.370;-0.486;2023-01-25T13:07:05;103141.81;;;3.88;85.11
71424;BME280;59240;51.370;-0.486;2023-01-25T13:09:44;103141.06;;;3.90;84.22
71424;BME280;59240;51.370;-0.486;2023-01-25T13:12:17;103171.38;;;4.15;84.07
71424;BME280;59240;51.370;-0.486;2023-01-25T13:14:49;103087.56;;;3.65;83.88
71424;BME280;59240;51.370;-0.486;2023-01-25T13:17:33;103150.09;;;4.00;84.25
71424;BME280;59240;51.370;-0.486;2023-01-25T13:20:52;103146.53;;;3.98;84.74
71424;BME280;59240;51.370;-0.486;2023-01-25T13:23:40;103190.63;;;4.23;84.19
71424;BME280;59240;51.370;-0.486;2023-01-25T13:28:58;103140.72;;;4.02;84.44
71424;BME280;59240;51.370;-0.486;2023-01-25T13:37:20;103082.50;;;3.88;84.60
71424;BME280;59240;51.370;-0.486;2023-01-25T13:40:51;103116.25;;;4.13;84.20
71424;BME280;59240;51.370;-0.486;2023-01-25T13:43:03;103088.31;;;4.03;84.48
71424;BME280;59240;51.370;-0.486;2023-01-25T13:45:34;103111.38;;;4.19;84.65
71424;BME280;59240;51.370;-0.486;2023-01-25T13:48:13;103131.69;;;4.32;84.82
71424;BME280;59240;51.370;-0.486;2023-01-25T13:51:05;103083.19;;;4.04;84.25
71424;BME280;59240;51.370;-0.486;2023-01-25T13:53:37;103099.13;;;4.15;83.99
71424;BME280;59240;51.370;-0.486;2023-01-25T13:56:27;103124.06;;;4.35;84.78
71424;BME280;59240;51.370;-0.486;2023-01-25T13:58:54;103074.38;;;4.19;84.27
71424;BME280;59240;51.370;-0.486;2023-01-25T14:01:21;103087.94;;;4.35;84.35
71424;BME280;59240;51.370;-0.486;2023-01-25T14:03:55;103076.03;;;4.39;84.71
71424;BME280;59240;51.370;-0.486;2023-01-25T14:06:29;103042.00;;;4.27;84.19
71424;BME280;59240;51.370;-0.486;2023-01-25T14:09:00;103065.78;;;4.41;85.35
71424;BME280;59240;51.370;-0.486;2023-01-25T14:11:30;103055.06;;;4.31;84.49
71424;BME280;59240;51.370;-0.486;2023-01-25T14:14:12;103034.31;;;4.28;84.32
71424;BME280;59240;51.370;-0.486;2023-01-25T14:16:41;103033.75;;;4.35;84.00
71424;BME280;59240;51.370;-0.486;2023-01-25T14:19:27;103022.09;;;4.24;84.64
71424;BME280;59240;51.370;-0.486;2023-01-25T14:22:20;103093.97;;;4.57;84.56
71424;BME280;59240;51.370;-0.486;2023-01-25T14:27:57;103025.16;;;4.14;84.38
71424;BME280;59240;51.370;-0.486;2023-01-25T14:30:40;103020.75;;;4.32;85.05
71424;BME280;59240;51.370;-0.486;2023-01-25T14:33:16;103017.34;;;4.33;84.18
71424;BME280;59240;51.370;-0.486;2023-01-25T14:35:45;102978.00;;;4.18;83.65
71424;BME280;59240;51.370;-0.486;2023-01-25T14:38:36;102961.75;;;4.19;84.81
71424;BME280;59240;51.370;-0.486;2023-01-25T14:41:23;102932.06;;;4.08;85.25
71424;BME280;59240;51.370;-0.486;2023-01-25T14:44:13;102915.66;;;4.06;84.48
71424;BME280;59240;51.370;-0.486;2023-01-25T14:46:43;102920.09;;;4.10;85.05
71424;BME280;59240;51.370;-0.486;2023-01-25T14:51:50;102905.97;;;4.23;84.93
71424;BME280;59240;51.370;-0.486;2023-01-25T14:57:36;102935.94;;;4.42;84.94
71424;BME280;59240;51.370;-0.486;2023-01-25T15:00:22;102889.38;;;4.16;86.62
71424;BME280;59240;51.370;-0.486;2023-01-25T15:02:55;102862.22;;;4.03;84.80
71424;BME280;59240;51.370;-0.486;2023-01-25T15:05:25;102922.38;;;4.47;84.99
71424;BME280;59240;51.370;-0.486;2023-01-25T15:10:52;102876.53;;;4.18;85.55
71424;BME280;59240;51.370;-0.486;2023-01-25T15:13:24;102886.56;;;4.32;85.36
71424;BME280;59240;51.370;-0.486;2023-01-25T15:16:02;102943.38;;;4.56;85.03
71424;BME280;59240;51.370;-0.486;2023-01-25T15:18:53;102949.22;;;4.75;85.36
71424;BME280;59240;51.370;-0.486;2023-01-25T15:21:30;102947.59;;;4.78;84.71
71424;BME280;59240;51.370;-0.486;2023-01-25T15:24:02;102895.69;;;4.47;85.47
71424;BME280;59240;51.370;-0.486;2023-01-25T15:26:35;102872.72;;;4.30;85.56
71424;BME280;59240;51.370;-0.486;2023-01-25T15:29:15;102925.34;;;4.58;85.32
71424;BME280;59240;51.370;-0.486;2023-01-25T15:31:54;102856.31;;;4.28;84.55
71424;BME280;59240;51.370;-0.486;2023-01-25T15:34:27;102935.47;;;4.76;84.99
71424;BME280;59240;51.370;-0.486;2023-01-25T15:37:21;102860.31;;;4.44;85.08
71424;BME280;59240;51.370;-0.486;2023-01-25T15:39:59;102860.38;;;4.46;85.34
71424;BME280;59240;51.370;-0.486;2023-01-25T15:42:26;102890.25;;;4.63;85.29
71424;BME280;59240;51.370;-0.486;2023-01-25T15:44:54;102866.53;;;4.49;85.00
71424;BME280;59240;51.370;-0.486;2023-01-25T15:47:21;102855.50;;;4.53;84.85
71424;BME280;59240;51.370;-0.486;2023-01-25T15:49:48;102833.63;;;4.44;84.30
71424;BME280;59240;51.370;-0.486;2023-01-25T15:52:24;102828.59;;;4.47;84.48
71424;BME280;59240;51.370;-0.486;2023-01-25T15:55:13;102889.75;;;4.73;84.94
71424;BME280;59240;51.370;-0.486;2023-01-25T15:58:05;102940.09;;;4.84;86.08
71424;BME280;59240;51.370;-0.486;2023-01-25T16:00:36;102944.94;;;4.75;84.83
71424;BME280;59240;51.370;-0.486;2023-01-25T16:03:06;102920.31;;;4.61;84.71
71424;BME280;59240;51.370;-0.486;2023-01-25T16:05:35;102913.41;;;4.60;85.10
71424;BME280;59240;51.370;-0.486;2023-01-25T16:08:12;102902.28;;;4.62;85.28
71424;BME280;59240;51.370;-0.486;2023-01-25T16:10:41;102881.31;;;4.53;85.52
71424;BME280;59240;51.370;-0.486;2023-01-25T16:13:08;102943.69;;;4.88;85.69
71424;BME280;59240;51.370;-0.486;2023-01-25T16:15:36;102882.19;;;4.54;84.68
71424;BME280;59240;51.370;-0.486;2023-01-25T16:18:04;102877.91;;;4.54;84.81
71424;BME280;59240;51.370;-0.486;2023-01-25T16:20:31;102859.88;;;4.56;85.04
71424;BME280;59240;51.370;-0.486;2023-01-25T16:22:57;102903.72;;;4.78;85.08
71424;BME280;59240;51.370;-0.486;2023-01-25T16:25:29;102882.84;;;4.72;84.75
71424;BME280;59240;51.370;-0.486;2023-01-25T16:28:01;102866.09;;;4.61;84.69
71424;BME280;59240;51.370;-0.486;2023-01-25T16:30:28;102895.13;;;4.79;84.50
71424;BME280;59240;51.370;-0.486;2023-01-25T16:32:57;102873.34;;;4.71;85.33
71424;BME280;59240;51.370;-0.486;2023-01-25T16:35:24;102855.03;;;4.65;85.36
71424;BME280;59240;51.370;-0.486;2023-01-25T16:37:55;102843.53;;;4.55;85.26
71424;BME280;59240;51.370;-0.486;2023-01-25T16:40:35;102867.69;;;4.81;85.05
71424;BME280;59240;51.370;-0.486;2023-01-25T16:43:04;102869.53;;;4.85;84.74
71424;BME280;59240;51.370;-0.486;2023-01-25T16:45:31;102810.06;;;4.58;85.10
71424;BME280;59240;51.370;-0.486;2023-01-25T16:47:59;102794.22;;;4.48;85.28
71424;BME280;59240;51.370;-0.486;2023-01-25T16:50:27;102814.53;;;4.62;84.26
71424;BME280;59240;51.370;-0.486;2023-01-25T16:52:54;102814.41;;;4.59;84.73
71424;BME280;59240;51.370;-0.486;2023-01-25T16:55:25;102836.28;;;4.69;85.24
71424;BME280;59240;51.370;-0.486;2023-01-25T16:57:52;102805.41;;;4.48;84.81
71424;BME280;59240;51.370;-0.486;2023-01-25T17:00:18;102857.34;;;4.81;84.65
71424;BME280;59240;51.370;-0.486;2023-01-25T17:02:46;102801.91;;;4.46;85.54
71424;BME280;59240;51.370;-0.486;2023-01-25T17:05:26;102799.84;;;4.37;85.33
71424;BME280;59240;51.370;-0.486;2023-01-25T17:07:58;102842.59;;;4.53;85.91
71424;BME280;59240;51.370;-0.486;2023-01-25T17:10:26;102837.50;;;4.55;86.11
71424;BME280;59240;51.370;-0.486;2023-01-25T17:12:55;102866.50;;;4.73;84.82
71424;BME280;59240;51.370;-0.486;2023-01-25T17:15:22;102864.28;;;4.82;85.77
71424;BME280;59240;51.370;-0.486;2023-01-25T17:17:51;102810.88;;;4.57;85.18
71424;BME280;59240;51.370;-0.486;2023-01-25T17:20:19;102776.75;;;4.41;85.02
71424;BME280;59240;51.370;-0.486;2023-01-25T17:22:46;102840.78;;;4.75;86.08
71424;BME280;59240;51.370;-0.486;2023-01-25T17:25:17;102829.22;;;4.65;85.53
71424;BME280;59240;51.370;-0.486;2023-01-25T17:27:44;102812.88;;;4.64;86.09
71424;BME280;59240;51.370;-0.486;2023-01-25T17:30:13;102865.69;;;4.98;86.56
71424;BME280;59240;51.370;-0.486;2023-01-25T17:32:41;102807.03;;;4.70;86.17
71424;BME280;59240;51.370;-0.486;2023-01-25T17:35:12;102849.38;;;5.01;85.73
71424;BME280;59240;51.370;-0.486;2023-01-25T17:37:39;102794.75;;;4.63;86.58
71424;BME280;59240;51.370;-0.486;2023-01-25T17:40:07;102810.97;;;4.84;85.94
71424;BME280;59240;51.370;-0.486;2023-01-25T17:42:38;102789.69;;;4.66;86.02
71424;BME280;59240;51.370;-0.486;2023-01-25T17:45:05;102797.72;;;4.74;86.34
71424;BME280;59240;51.370;-0.486;2023-01-25T17:47:32;102824.25;;;4.95;86.04
71424;BME280;59240;51.370;-0.486;2023-01-25T17:50:01;102812.22;;;4.96;86.10
71424;BME280;59240;51.370;-0.486;2023-01-25T17:52:27;102785.81;;;4.79;86.05
71424;BME280;59240;51.370;-0.486;2023-01-25T17:54:54;102764.81;;;4.68;85.79
71424;BME280;59240;51.370;-0.486;2023-01-25T17:57:24;102728.97;;;4.52;86.04
71424;BME280;59240;51.370;-0.486;2023-01-25T17:59:54;102745.94;;;4.71;85.43
71424;BME280;59240;51.370;-0.486;2023-01-25T18:02:20;102762.53;;;4.77;86.14
71424;BME280;59240;51.370;-0.486;2023-01-25T18:04:48;102757.16;;;4.71;86.05